Date,TemperatureHighF,TemperatureAvgF,TemperatureLowF,DewpointHighF,DewpointAvgF,DewpointLowF,HumidityHigh,HumidityAvg,HumidityLow,PressureMaxIn,PressureMinIn,WindSpeedMaxMPH,WindSpeedAvgMPH,GustSpeedMaxMPH,PrecipitationSumIn
2014-1-1,66,47,34,45,37,29,87,68,44,31.13,31.03,1,0,3,0.00
2014-1-2,68,50,38,42,36,31,83,60,32,31.09,30.96,2,0,4,0.00
2014-1-3,69,51,40,43,37,32,78,61,32,30.98,30.87,2,0,4,0.00
2014-1-4,68,51,38,50,36,22,89,60,32,31.00,30.89,2,0,7,0.00
2014-1-5,69,50,37,37,29,20,64,45,30,31.12,30.99,2,0,6,0.00
2014-1-6,64,49,38,41,36,30,78,64,40,31.19,31.06,2,0,5,0.00
2014-1-7,65,50,42,46,40,35,83,68,46,31.13,31.03,2,0,5,0.00
2014-1-8,58,51,44,50,46,39,88,82,74,31.14,31.06,2,0,5,0.00
2014-1-9,61,50,43,52,43,36,92,77,52,31.18,31.09,7,1,12,0.00
2014-1-10,66,50,40,52,42,36,90,77,52,31.21,31.08,2,0,5,0.00
2014-1-11,61,50,42,51,44,38,89,81,68,31.21,31.07,10,1,18,0.00
2014-1-12,60,48,40,46,40,34,91,73,47,31.30,31.18,6,1,12,0.01
2014-1-13,70,53,43,40,36,32,72,54,30,31.36,31.25,3,0,5,0.00
2014-1-14,49,47,44,35,34,32,65,60,57,31.31,31.29,0,0,1,0.00
2014-1-16,76,58,41,39,34,29,67,42,24,31.14,31.02,3,0,4,0.00
2014-1-17,46,43,41,30,29,28,62,57,52,31.05,31.03,0,0,0,0.00
2014-1-30,65,57,51,49,44,41,86,64,46,30.85,30.76,4,1,11,0.04
2014-1-31,62,50,40,46,37,30,88,63,32,31.00,30.83,7,1,14,0.00
2014-2-1,62,47,35,42,33,30,87,62,32,31.08,30.99,2,0,5,0.00
2014-2-2,54,46,42,45,40,34,92,77,67,30.99,30.76,7,1,18,0.16
2014-2-3,56,46,38,44,38,32,89,75,51,31.00,30.89,8,1,16,0.00
2014-2-4,56,45,35,44,37,31,89,75,55,31.08,30.99,4,0,6,0.00
2014-2-5,59,47,35,44,39,31,89,74,50,31.12,30.97,4,0,9,0.02
2014-2-6,57,50,46,48,45,43,92,84,70,30.97,30.79,5,1,11,0.01
2014-2-7,56,52,47,50,47,44,92,84,74,31.00,30.88,7,2,15,0.12
2014-2-8,65,59,54,57,52,48,89,79,69,31.07,30.96,7,2,14,0.07
2014-2-9,68,14,59,56,-67,-100,79,15,61,31.08,30.98,7,-784,7,0.00
2014-2-10,60,20,56,54,-48,-100,88,27,73,31.19,31.02,3,-658,6,0.00
2014-2-11,63,38,46,54,3,-100,92,55,63,31.16,31.07,3,-304,10,0.00
2014-2-12,64,53,45,51,47,41,90,80,59,31.20,31.08,2,0,4,0.00
2014-2-13,72,58,47,57,51,43,91,79,60,31.13,31.00,4,0,9,0.00
2014-2-14,64,57,49,57,52,45,92,82,66,31.07,30.97,4,0,6,0.02
2014-2-15,63,53,46,54,48,42,91,83,70,30.97,30.88,3,0,6,0.01
2014-2-16,65,56,46,52,42,34,89,63,34,31.12,30.95,5,1,10,0.03
2014-2-17,63,50,39,48,40,35,90,72,47,31.10,31.00,6,1,14,0.00
2014-2-18,67,52,41,51,43,37,90,73,40,31.11,31.00,6,1,7,0.01
2014-2-19,66,55,44,50,44,39,88,69,43,31.12,31.01,5,1,12,0.04
2014-2-20,71,54,41,44,38,34,87,60,31,31.12,31.02,3,0,6,0.00
2014-2-21,76,56,41,50,40,35,88,61,28,31.03,30.88,4,0,9,0.00
2014-2-22,74,55,42,52,43,37,90,68,29,30.93,30.82,2,0,6,0.00
2014-2-23,71,55,44,51,46,40,92,73,40,30.94,30.84,3,0,8,0.00
2014-2-24,76,57,40,52,44,36,92,66,35,30.90,30.80,4,0,8,0.00
2014-2-25,66,56,47,51,47,42,88,74,54,30.89,30.80,3,0,7,0.00
2014-2-26,65,57,53,54,50,46,89,79,64,30.87,30.57,10,3,16,0.49
2014-2-27,68,60,53,52,48,45,86,66,49,30.81,30.40,8,2,12,0.53
2014-2-28,63,55,52,52,50,45,89,82,53,30.41,30.27,11,2,19,0.11
2014-3-1,67,58,52,54,50,47,87,77,54,30.72,30.36,8,2,15,0.42
2014-3-2,64,56,49,55,49,44,87,78,59,31.08,30.71,3,1,9,0.02
2014-3-3,63,54,45,51,48,41,90,79,60,31.07,30.89,5,0,10,0.08
2014-3-4,70,59,53,55,52,49,87,79,60,31.01,30.94,3,1,8,0.08
2014-3-5,74,62,52,58,53,49,91,75,46,31.01,30.89,5,1,10,0.00
2014-3-6,67,60,48,56,51,43,90,74,51,31.11,30.96,5,1,9,0.08
2014-3-7,72,57,44,48,44,39,87,65,39,31.08,30.99,3,0,7,0.00
2014-3-8,78,60,44,54,46,40,91,65,31,31.11,31.01,2,0,6,0.00
2014-3-9,78,65,54,55,50,44,78,60,40,31.09,30.96,3,0,9,0.00
2014-3-10,70,60,54,52,48,44,84,64,45,31.14,31.00,7,2,13,0.01
2014-3-11,71,60,47,44,36,29,73,45,25,31.10,30.92,6,1,12,0.00
2014-3-12,77,66,48,38,35,27,53,33,22,31.00,30.89,7,2,11,0.00
2014-3-13,79,61,44,50,37,28,72,45,16,30.98,30.86,5,1,11,0.00
2014-3-14,74,57,44,52,45,38,89,66,35,31.13,30.97,4,0,7,0.00
2014-3-15,83,63,46,56,46,37,90,61,21,31.20,31.12,3,0,8,0.00
2014-3-16,82,60,45,56,46,40,89,64,28,31.21,31.07,4,0,9,0.00
2014-3-17,70,57,48,48,44,40,82,64,38,31.16,30.87,6,1,13,0.00
2014-3-18,73,57,42,46,36,30,90,51,22,30.89,30.79,5,1,13,0.00
2014-3-19,79,59,40,42,38,32,78,49,24,30.99,30.87,4,1,8,0.00
2014-3-20,77,60,46,52,43,37,77,57,28,30.96,30.83,6,1,11,0.00
2014-3-21,72,56,43,51,45,38,88,69,46,30.91,30.83,4,1,10,0.00
2014-3-22,71,56,42,50,45,38,89,68,40,31.03,30.90,3,1,7,0.01
2014-3-23,71,58,47,52,47,41,87,70,46,31.08,30.98,3,0,9,0.00
2014-3-24,78,59,41,54,45,37,89,64,27,31.06,30.91,4,1,10,0.00
2014-3-25,66,54,42,54,45,34,79,70,50,30.96,30.77,6,1,10,0.01
2014-3-26,64,56,51,54,47,45,87,74,55,30.89,30.73,6,1,12,0.19
2014-3-27,70,58,48,50,46,43,87,67,44,31.05,30.89,5,1,11,0.01
2014-3-28,76,61,48,51,47,43,86,63,39,31.10,30.99,5,1,9,0.00
2014-3-29,62,56,50,56,50,46,87,81,72,31.05,30.91,4,1,9,0.08
2014-3-30,66,54,44,49,43,40,89,70,43,31.04,30.95,6,2,13,0.10
2014-3-31,56,48,43,46,42,38,87,81,63,30.99,30.74,7,1,12,0.09
2014-4-1,62,49,43,49,42,39,90,79,48,30.85,30.75,7,2,12,0.16
2014-4-2,63,52,41,49,41,38,91,70,43,31.02,30.78,6,1,8,0.16
2014-4-3,66,53,42,49,42,35,89,69,40,31.02,30.92,7,1,13,0.01
2014-4-4,62,53,48,51,45,40,87,74,49,30.96,30.87,6,1,14,0.20
2014-4-5,69,56,43,49,45,40,90,69,45,31.11,30.96,7,1,12,0.01
2014-4-6,80,61,43,54,47,39,89,63,34,31.14,30.99,5,1,9,0.00
2014-4-7,86,68,48,55,50,44,89,58,32,31.05,30.95,3,0,9,0.00
2014-4-8,89,68,52,59,53,47,88,62,29,31.01,30.90,5,1,14,0.00
2014-4-9,76,62,51,57,51,46,88,70,44,30.99,30.88,3,0,8,0.00
2014-4-10,53,50,48,47,45,44,87,84,82,30.94,30.92,0,0,0,0.00
2014-4-14,78,64,54,56,52,48,88,65,40,31.01,30.93,2,1,7,0.00
2014-4-15,74,61,52,54,50,45,85,68,45,30.98,30.79,5,1,8,0.00
2014-4-16,85,64,48,54,48,43,88,61,28,30.83,30.70,4,1,10,0.00
2014-4-17,74,61,49,55,49,44,89,66,42,30.78,30.70,9,1,12,0.00
2014-4-18,72,60,47,54,47,37,85,62,43,30.86,30.77,4,1,10,0.00
2014-4-19,71,58,46,52,46,40,86,67,39,31.04,30.86,8,2,14,0.00
2014-4-20,83,64,46,56,48,35,90,62,20,31.05,30.95,4,1,12,0.01
2014-4-21,72,60,45,53,45,30,85,60,22,30.99,30.88,6,1,13,0.00
2014-4-22,66,56,50,49,40,35,79,57,36,31.04,30.87,12,4,22,0.00
2014-4-23,69,57,44,47,40,34,75,56,36,31.05,30.98,8,2,14,0.00
2014-4-24,69,59,46,52,48,42,88,70,50,31.02,30.89,9,2,15,0.00
2014-4-25,60,55,51,52,47,42,85,75,63,30.89,30.71,6,1,16,0.23
2014-4-26,64,54,46,43,40,36,79,61,38,31.01,30.76,10,3,18,0.00
2014-4-27,69,57,49,51,45,42,77,64,41,31.05,30.94,9,2,16,0.00
2014-4-28,75,59,42,49,42,33,85,56,29,31.13,31.05,8,1,12,0.00
2014-4-29,89,70,48,48,44,38,77,44,21,31.10,30.94,5,1,10,0.00
2014-4-30,96,74,54,54,48,43,78,44,19,30.98,30.89,4,1,9,0.00
2014-5-1,95,74,54,54,46,38,69,40,23,30.99,30.92,4,0,7,0.00
2014-5-2,84,67,51,56,48,39,74,52,29,30.99,30.90,3,1,10,0.00
2014-5-3,57,56,55,51,49,48,84,78,74,30.96,30.94,0,0,1,0.00
2014-5-5,68,61,54,49,45,42,70,56,44,30.95,30.87,10,4,18,0.00
2014-5-6,72,60,48,46,43,39,74,56,33,30.88,30.78,9,3,17,0.00
2014-5-7,72,58,49,49,45,42,80,64,41,30.93,30.81,8,2,15,0.00
2014-5-8,72,62,49,55,50,43,82,67,52,31.00,30.93,5,1,7,0.00
2014-5-9,69,61,53,54,48,42,84,64,39,31.08,30.99,9,2,17,0.00
2014-5-10,70,58,48,45,42,40,76,57,38,31.07,30.93,13,4,21,0.00
2014-5-11,79,64,50,44,39,30,76,44,22,31.00,30.91,10,3,19,0.00
2014-5-12,90,69,46,53,42,34,83,43,15,31.00,30.91,5,1,10,0.00
2014-5-13,96,75,51,54,42,34,62,36,15,31.04,30.95,7,1,14,0.00
2014-5-14,96,77,54,51,44,37,57,34,16,31.04,30.92,5,1,12,0.00
2014-5-15,93,75,55,48,40,32,54,32,13,30.99,30.92,8,1,10,0.00
2014-5-16,82,66,52,57,49,40,78,55,32,30.99,30.88,4,1,9,0.00
2014-5-17,80,64,53,54,47,42,86,57,35,30.92,30.86,8,2,15,0.00
2014-5-18,74,63,55,52,47,42,75,57,41,30.90,30.85,12,3,20,0.00
2014-5-19,72,60,51,50,47,44,79,63,44,30.89,30.84,9,2,21,0.00
2014-5-20,76,62,50,53,49,45,84,64,43,30.91,30.85,6,1,11,0.00
2014-5-21,81,64,51,57,51,46,86,64,39,30.89,30.79,5,1,10,0.00
2014-5-22,76,64,56,57,53,49,82,67,49,30.94,30.82,5,1,10,0.00
2014-5-23,76,64,55,58,54,51,86,72,52,30.94,30.84,4,1,9,0.00
2014-5-24,62,57,55,55,52,50,87,83,79,30.90,30.88,1,0,5,0.00
2014-5-27,78,68,50,52,46,38,80,47,29,30.95,30.88,5,2,10,0.00
2014-5-28,80,64,45,43,39,36,72,43,23,30.97,30.85,8,2,14,0.00
2014-5-29,87,68,50,52,43,34,79,47,17,30.86,30.78,8,1,13,0.00
2014-5-30,73,60,49,53,48,44,87,66,41,30.89,30.81,9,1,12,0.00
2014-5-31,78,62,47,56,50,42,87,66,44,30.88,30.80,5,1,12,0.00
2014-6-1,82,66,52,57,53,48,89,67,37,30.83,30.68,4,1,8,0.00
2014-6-2,75,63,54,53,50,48,85,66,46,30.81,30.73,9,1,13,0.00
2014-6-3,75,63,54,56,51,47,83,66,46,30.84,30.75,4,1,9,0.00
2014-6-4,82,67,55,59,54,50,86,67,44,30.80,30.71,3,1,8,0.00
2014-6-5,80,66,55,60,55,50,87,69,48,30.76,30.69,4,1,9,0.00
2014-6-6,77,64,54,58,54,50,89,72,51,30.74,30.68,4,1,11,0.00
2014-6-20,72,65,59,58,56,55,88,75,56,30.89,30.88,0,0,1,0.00
2014-7-18,76,71,64,61,59,56,80,66,55,30.91,30.82,4,1,12,0.00
2014-7-19,79,70,63,62,59,57,82,70,55,30.86,30.80,4,1,10,0.00
2014-7-20,78,70,64,63,60,59,85,73,59,30.88,30.82,5,1,12,0.00
2014-7-21,82,72,64,63,59,55,81,66,48,30.94,30.87,6,1,14,0.00
2014-7-22,80,69,61,60,57,54,80,66,50,31.00,30.92,7,2,16,0.00
2014-7-23,82,70,57,64,57,52,88,67,45,31.04,30.93,6,1,11,0.00
2014-7-24,92,74,58,63,58,48,88,61,24,30.95,30.72,5,1,10,0.00
2014-7-25,99,77,57,65,57,51,87,55,21,30.78,30.70,5,1,10,0.00
2014-7-26,91,73,58,65,60,53,88,64,41,30.85,30.77,3,1,7,0.00
2014-7-27,91,73,64,64,60,58,82,66,41,30.89,30.80,3,1,7,0.00
2014-7-28,82,70,62,63,59,57,86,69,50,30.95,30.88,4,1,10,0.00
2014-7-29,85,72,62,64,60,57,85,67,43,30.95,30.86,4,1,9,0.00
2014-7-30,84,69,61,63,60,56,89,73,48,30.90,30.83,3,1,9,0.00
2014-8-1,86,75,62,65,61,58,90,64,46,30.82,30.75,3,1,9,0.00
2014-8-2,75,66,61,61,58,56,89,75,59,30.85,30.79,5,1,12,0.00
2014-8-3,78,66,62,60,58,56,85,73,54,30.87,30.80,4,1,9,0.00
2014-8-4,79,69,62,60,58,56,83,69,51,30.89,30.82,5,1,11,0.00
2014-8-5,85,70,62,64,59,56,84,70,48,30.97,30.89,7,1,8,0.00
2014-8-6,88,73,63,66,62,58,86,69,39,30.92,30.83,4,1,9,0.00
2014-8-7,78,68,62,62,59,56,85,73,57,30.87,30.79,3,1,9,0.00
2014-8-8,82,68,57,62,57,52,89,71,46,30.84,30.76,3,0,9,0.00
2014-8-9,76,65,55,59,55,50,88,71,55,30.89,30.80,3,1,9,0.00
2014-8-10,59,57,56,53,52,51,84,83,81,30.89,30.85,0,0,0,0.00
2014-8-14,80,70,58,62,59,54,89,70,50,30.86,30.77,4,1,9,0.00
2014-8-15,83,69,58,62,59,54,90,72,44,30.90,30.82,3,1,10,0.00
2014-8-16,82,70,62,62,58,56,85,69,50,30.94,30.85,3,1,12,0.00
2014-8-17,80,67,60,62,58,55,85,72,50,30.93,30.81,4,1,9,0.00
2014-8-18,75,66,62,61,58,55,85,74,59,30.82,30.71,5,1,11,0.00
2014-8-19,81,69,61,61,57,54,82,69,48,30.78,30.68,5,1,10,0.00
2014-8-20,83,69,56,60,57,51,88,67,45,30.82,30.74,4,1,9,0.00
2014-8-21,82,69,58,63,58,53,85,70,50,30.85,30.78,4,1,9,0.00
2014-8-22,84,70,59,62,58,54,89,69,42,30.83,30.76,6,1,12,0.00
2014-8-23,81,68,60,60,56,54,85,67,47,30.85,30.73,5,1,14,0.00
2014-8-24,78,67,62,61,57,54,82,72,53,30.80,30.70,4,1,7,0.00
2014-8-25,78,66,57,59,55,52,86,70,51,30.85,30.73,7,1,11,0.00
2014-8-26,80,70,55,60,57,51,88,66,48,30.91,30.82,4,1,8,0.00
2014-8-27,86,70,57,63,59,53,89,70,42,30.96,30.87,5,1,10,0.00
2014-8-28,86,69,59,64,59,54,88,73,46,30.97,30.83,3,0,7,0.00
2014-8-29,85,68,61,64,59,56,87,74,48,30.87,30.77,4,1,9,0.00
2014-8-30,90,72,57,64,57,51,90,65,28,30.82,30.75,6,1,12,0.00
2014-8-31,84,70,56,62,57,51,89,67,38,30.83,30.73,3,0,7,0.00
2014-9-1,93,72,56,64,58,52,89,65,30,30.75,30.64,2,0,6,0.00
2014-9-2,78,68,58,62,59,54,89,74,57,30.74,30.66,4,1,9,0.00
2014-9-3,83,69,61,61,58,55,82,69,46,30.70,30.59,3,1,7,0.00
2014-9-4,81,68,60,62,58,54,87,72,50,30.70,30.60,4,1,7,0.00
2014-9-5,76,67,59,60,57,52,82,71,56,30.81,30.69,4,1,10,0.00
2014-9-6,77,66,58,60,56,52,85,71,54,30.86,30.77,3,1,6,0.00
2014-9-7,75,65,58,58,55,53,84,71,54,30.81,30.70,3,1,10,0.00
2014-9-8,70,63,57,56,53,50,82,71,57,30.85,30.74,4,1,11,0.00
2014-9-9,78,64,52,60,54,47,87,72,51,30.90,30.80,3,0,8,0.00
2014-9-10,94,70,54,63,57,50,90,68,30,30.85,30.71,2,0,5,0.00
2014-9-11,91,70,53,64,57,49,90,68,29,30.81,30.70,3,0,6,0.00
2014-9-12,88,70,56,64,58,52,90,69,36,30.80,30.68,3,0,8,0.00
2014-9-13,84,68,57,63,58,53,89,73,46,30.76,30.66,2,0,7,0.00
2014-9-14,83,69,57,62,58,53,88,69,42,30.76,30.69,3,0,6,0.00
2014-9-15,80,34,59,61,28,54,85,31,42,30.84,30.74,3,1,7,0.00
2014-9-16,85,30,60,60,22,52,88,19,33,30.84,30.69,4,0,6,0.00
2014-9-17,86,26,67,62,20,57,79,18,39,30.72,30.62,7,1,12,0.00
2014-9-18,85,27,70,64,20,57,81,17,39,30.79,30.67,4,1,9,0.00
2014-9-19,79,29,65,64,24,61,89,25,58,30.82,30.73,4,1,9,0.00
2014-9-20,79,22,71,63,17,61,72,17,59,30.84,30.77,11,0,11,0.00
2014-9-21,77,23,69,62,19,59,71,19,56,30.91,30.82,4,1,10,0.00
2014-9-22,81,22,67,62,17,58,74,16,51,30.95,30.84,4,0,10,0.00
2014-9-23,81,28,61,63,23,58,90,23,52,30.91,30.80,4,0,7,0.00
2014-9-24,81,27,68,64,21,61,82,20,54,30.87,30.76,6,1,10,0.00
2014-9-25,75,68,58,58,56,53,83,68,55,30.90,30.86,3,1,6,0.01
2014-9-26,74,63,53,59,53,50,91,72,48,30.90,30.81,8,1,11,0.01
2014-9-27,78,65,57,58,55,52,85,70,48,30.83,30.72,4,1,9,0.00
2014-9-28,78,64,53,60,55,49,92,73,50,30.86,30.72,3,0,9,0.00
2014-9-29,75,64,55,60,56,51,90,76,59,30.93,30.85,3,0,9,0.00
2014-9-30,78,65,52,60,55,49,91,73,46,30.89,30.73,5,1,12,0.00